createdAt,value
2022-11-16T05:16:34.810Z,14.43
2022-11-16T05:19:25.758Z,14.43
2022-11-16T05:21:56.047Z,13.35
2022-11-16T05:24:37.451Z,14.38
2022-11-16T05:27:09.390Z,14.90
2022-11-16T05:29:41.343Z,15.38
2022-11-16T05:32:12.910Z,17.88
2022-11-16T05:34:44.837Z,18.48
2022-11-16T05:37:13.699Z,20.20
2022-11-16T05:39:43.608Z,21.92
2022-11-16T05:42:17.576Z,18.67
2022-11-16T05:44:55.135Z,18.20
2022-11-16T05:47:30.509Z,18.85
2022-11-16T05:50:00.168Z,18.35
2022-11-16T05:52:34.022Z,19.75
2022-11-16T05:55:07.120Z,18.42
2022-11-16T05:57:41.698Z,18.00
2022-11-16T06:02:58.114Z,17.63
2022-11-16T06:05:40.526Z,15.43
2022-11-16T06:08:32.821Z,16.00
2022-11-16T06:11:06.150Z,14.60
2022-11-16T06:13:37.593Z,15.10
2022-11-16T06:16:07.844Z,14.52
2022-11-16T06:18:38.832Z,14.13
2022-11-16T06:21:09.277Z,14.52
2022-11-16T06:23:42.302Z,14.15
2022-11-16T06:26:20.333Z,12.57
2022-11-16T06:28:49.358Z,12.98
2022-11-16T06:31:18.509Z,13.50
2022-11-16T06:33:48.995Z,12.93
2022-11-16T06:36:22.100Z,12.20
2022-11-16T06:38:51.319Z,12.93
2022-11-16T06:41:21.099Z,12.30
2022-11-16T06:43:51.492Z,12.63
2022-11-16T06:46:25.321Z,12.40
2022-11-16T06:48:54.700Z,12.98
2022-11-16T06:52:30.970Z,12.95
2022-11-16T06:55:03.647Z,11.95
2022-11-16T06:57:41.779Z,12.93
2022-11-16T07:00:52.838Z,12.75
2022-11-16T07:03:57.316Z,12.93
2022-11-16T07:06:35.554Z,12.13
2022-11-16T07:09:20.211Z,12.73
2022-11-16T07:11:52.959Z,13.70
2022-11-16T07:14:26.206Z,12.82
2022-11-16T07:17:09.180Z,14.05
2022-11-16T07:19:43.079Z,13.05
2022-11-16T07:22:15.676Z,11.93
2022-11-16T07:24:52.127Z,13.35
2022-11-16T07:28:16.238Z,14.55
2022-11-16T07:31:27.390Z,14.55
2022-11-16T07:34:20.686Z,13.57
2022-11-16T07:37:15.606Z,14.00
2022-11-16T07:40:42.313Z,15.88
2022-11-16T07:43:14.627Z,14.85
2022-11-16T07:46:45.933Z,13.65
2022-11-16T07:49:22.170Z,14.50
2022-11-16T07:51:55.186Z,15.07
2022-11-16T07:54:47.444Z,14.43
2022-11-16T07:57:19.647Z,15.05
2022-11-16T08:02:50.144Z,14.98
2022-11-16T08:05:24.801Z,15.23
2022-11-16T08:09:07.942Z,14.65
2022-11-16T08:12:37.046Z,16.02
2022-11-16T08:15:09.585Z,15.95
2022-11-16T08:17:41.179Z,17.45
2022-11-16T08:20:17.481Z,15.45
2022-11-16T08:22:50.011Z,16.02
2022-11-16T08:25:45.324Z,16.02
2022-11-16T08:28:14.722Z,15.40
2022-11-16T08:30:43.693Z,15.90
2022-11-16T08:33:12.875Z,18.70
2022-11-16T08:35:42.465Z,16.02
2022-11-16T08:38:10.819Z,15.52
2022-11-16T08:40:46.545Z,15.30
2022-11-16T08:44:06.818Z,15.13
2022-11-16T08:46:42.496Z,16.42
2022-11-16T08:49:20.994Z,17.55
2022-11-16T08:51:50.411Z,18.05
2022-11-16T08:55:02.188Z,16.13
2022-11-16T08:57:33.011Z,16.38
2022-11-16T09:00:16.844Z,15.85
2022-11-16T09:03:20.947Z,15.85
2022-11-16T09:06:00.212Z,14.45
2022-11-16T09:08:28.458Z,15.88
2022-11-16T09:11:12.516Z,17.67
2022-11-16T09:13:49.425Z,17.85
2022-11-16T09:20:56.844Z,15.25
2022-11-16T09:23:59.679Z,17.42
2022-11-16T09:33:25.154Z,15.45
2022-11-16T09:36:04.757Z,16.52
2022-11-16T09:39:25.781Z,16.73
2022-11-16T09:41:57.007Z,15.43
2022-11-16T09:45:09.027Z,13.90
2022-11-16T09:47:45.731Z,15.15
2022-11-16T09:50:32.629Z,15.23
2022-11-16T09:53:34.515Z,15.38
2022-11-16T09:56:16.437Z,15.50
2022-11-16T09:59:32.940Z,16.70
2022-11-16T10:02:34.259Z,15.48
2022-11-16T10:05:21.803Z,15.38
2022-11-16T10:07:56.982Z,14.57
2022-11-16T10:11:17.939Z,16.40
2022-11-16T10:14:07.737Z,17.73
2022-11-16T10:16:56.435Z,16.38
2022-11-16T10:19:58.223Z,15.10
2022-11-16T10:22:42.431Z,14.93
2022-11-16T10:25:20.976Z,16.08
2022-11-16T10:28:33.745Z,17.08
2022-11-16T10:31:26.646Z,14.25
2022-11-16T10:34:04.550Z,14.52
2022-11-16T10:36:49.921Z,16.08
2022-11-16T10:39:46.905Z,17.00
2022-11-16T10:42:35.339Z,15.90
2022-11-16T10:45:39.069Z,14.30
2022-11-16T10:48:30.401Z,14.50
2022-11-16T10:50:59.850Z,14.55
2022-11-16T10:53:32.115Z,15.65
2022-11-16T10:56:37.473Z,14.55
2022-11-16T10:59:20.974Z,16.27
2022-11-16T13:27:50.256Z,22.13
2022-11-16T13:30:22.216Z,22.77
2022-11-16T13:33:05.932Z,21.55
2022-11-16T13:35:39.114Z,22.95
2022-11-16T13:38:14.190Z,21.15
2022-11-16T13:40:42.170Z,20.70
2022-11-16T13:43:10.305Z,20.30
2022-11-16T13:45:57.217Z,21.15
2022-11-16T13:48:34.832Z,17.55
2022-11-16T13:51:07.850Z,18.88
2022-11-16T13:54:37.913Z,19.20
2022-11-16T13:56:49.288Z,18.58
2022-11-16T13:59:17.849Z,18.52
2022-11-16T14:02:36.272Z,18.92
2022-11-16T14:05:14.790Z,18.17
2022-11-16T14:07:49.961Z,17.73
2022-11-16T14:10:53.531Z,17.38
2022-11-16T14:13:45.825Z,18.13
2022-11-16T14:16:24.608Z,18.05
2022-11-16T14:18:54.492Z,19.80
2022-11-16T14:21:52.931Z,21.02
2022-11-16T14:24:40.429Z,20.55
2022-11-16T14:27:31.460Z,21.17
2022-11-16T14:30:55.762Z,19.98
2022-11-16T14:33:33.958Z,17.83
2022-11-16T14:36:04.482Z,19.45
2022-11-16T14:38:42.451Z,19.20
2022-11-16T14:41:28.804Z,19.48
2022-11-16T14:46:33.508Z,19.50
2022-11-16T14:49:02.159Z,19.75
2022-11-16T14:51:40.230Z,19.73
2022-11-16T14:54:15.199Z,19.38
2022-11-16T14:57:05.950Z,19.00
2022-11-16T14:59:35.040Z,20.40
2022-11-16T15:02:12.531Z,20.38
2022-11-16T15:04:40.539Z,20.92
2022-11-16T15:07:08.686Z,21.20
2022-11-16T15:09:59.441Z,19.92
2022-11-16T15:12:41.633Z,18.67
2022-11-16T15:15:23.145Z,18.92
2022-11-16T15:18:03.979Z,18.23
2022-11-16T15:20:34.195Z,18.20
2022-11-16T15:23:04.394Z,18.00
2022-11-16T15:25:54.666Z,17.40
2022-11-16T15:28:24.135Z,18.45
2022-11-16T15:31:12.563Z,17.33
2022-11-16T15:33:42.633Z,18.65
2022-11-16T15:36:27.870Z,21.58
2022-11-16T15:38:59.992Z,23.75
2022-11-16T15:41:29.561Z,21.17
2022-11-16T15:44:14.057Z,20.20
2022-11-16T15:46:46.370Z,18.75
2022-11-16T15:49:26.398Z,18.70
2022-11-16T15:51:58.610Z,18.63
2022-11-16T15:54:29.309Z,18.35
2022-11-16T15:57:09.380Z,19.10
2022-11-16T15:59:38.056Z,18.88
2022-11-16T16:02:19.650Z,19.15
2022-11-16T16:04:48.185Z,21.55
2022-11-16T16:07:36.744Z,20.60
2022-11-16T16:11:04.505Z,18.00
2022-11-16T16:14:04.933Z,17.15
2022-11-16T16:16:48.992Z,17.05
2022-11-16T16:19:33.868Z,18.08
2022-11-16T16:22:05.818Z,17.63
2022-11-16T16:24:47.679Z,16.65
2022-11-16T16:27:23.332Z,17.98
2022-11-16T16:29:55.570Z,16.90
2022-11-16T16:33:00.445Z,16.83
2022-11-16T16:35:32.428Z,17.67
2022-11-16T16:38:02.995Z,18.00
2022-11-16T16:40:33.498Z,16.35
2022-11-16T16:47:34.976Z,15.77
2022-11-16T16:50:03.387Z,15.35
2022-11-16T16:52:56.709Z,15.40
2022-11-16T16:55:31.700Z,15.13
2022-11-16T16:59:01.341Z,14.45
2022-11-16T17:01:37.540Z,15.45
2022-11-16T17:04:47.110Z,16.08
2022-11-16T17:07:19.072Z,15.67
2022-11-16T17:10:02.559Z,15.23
2022-11-16T17:12:46.576Z,16.25
2022-11-16T17:15:26.084Z,16.65
2022-11-16T17:23:02.017Z,17.08
2022-11-16T17:25:34.949Z,17.08
2022-11-16T17:28:40.683Z,17.98
2022-11-16T17:31:52.081Z,17.75
2022-11-16T17:34:29.053Z,17.08
2022-11-16T17:37:00.830Z,14.93
2022-11-16T17:40:04.346Z,16.05
2022-11-16T17:42:38.530Z,15.82
2022-11-16T17:45:09.207Z,16.38
2022-11-16T17:58:02.333Z,13.25
2022-11-16T18:01:11.210Z,13.95
2022-11-16T18:04:55.731Z,15.52
2022-11-16T18:07:38.032Z,15.10
2022-11-16T18:11:46.893Z,14.57
2022-11-16T18:14:30.427Z,14.25
2022-11-16T18:21:43.729Z,14.88
2022-11-16T18:24:12.400Z,15.27
2022-11-16T18:26:42.755Z,15.75
2022-11-16T18:29:12.968Z,15.93
2022-11-16T18:31:44.533Z,17.13
2022-11-16T18:34:47.940Z,18.27
2022-11-16T18:37:33.944Z,14.95
2022-11-16T18:41:33.764Z,13.60
2022-11-16T18:51:44.990Z,14.98
2022-11-16T18:59:30.145Z,11.23
2022-11-16T19:02:27.419Z,9.75
2022-11-16T19:05:18.336Z,9.55
2022-11-16T19:07:56.488Z,8.75
2022-11-16T19:10:25.436Z,9.45
2022-11-16T19:13:35.829Z,8.65
2022-11-16T19:16:24.012Z,9.25
2022-11-16T19:19:30.189Z,9.38
2022-11-16T19:23:08.512Z,8.15
2022-11-16T19:25:38.814Z,7.82
2022-11-16T19:28:17.851Z,8.85
2022-11-16T19:30:46.468Z,8.35
2022-11-16T19:33:32.632Z,7.95
2022-11-16T19:36:18.458Z,8.45
2022-11-16T19:39:19.551Z,7.35
2022-11-16T22:47:55.530Z,16.00
2022-11-16T22:50:24.417Z,15.90
2022-11-16T22:52:52.589Z,18.08
2022-11-16T22:55:21.299Z,16.25
2022-11-16T22:57:51.567Z,16.75
2022-11-16T23:00:20.624Z,16.55
2022-11-16T23:02:48.989Z,17.50
2022-11-16T23:05:17.105Z,17.95
2022-11-16T23:07:45.096Z,16.25
2022-11-16T23:10:13.452Z,16.90
2022-11-16T23:13:00.041Z,16.95
2022-11-16T23:18:19.826Z,15.70
2022-11-16T23:21:07.922Z,16.05
2022-11-16T23:23:56.211Z,16.00
2022-11-16T23:26:43.007Z,16.75
2022-11-16T23:29:14.355Z,16.80
2022-11-16T23:31:42.513Z,16.55
2022-11-16T23:34:20.221Z,17.00
2022-11-16T23:36:48.611Z,16.50
2022-11-16T23:39:20.355Z,17.75
2022-11-16T23:42:07.314Z,16.63
2022-11-16T23:44:37.778Z,17.25
2022-11-16T23:47:05.789Z,16.83
2022-11-16T23:49:33.813Z,17.42
2022-11-16T23:52:02.350Z,16.70
2022-11-16T23:54:31.459Z,18.05
2022-11-16T23:56:59.466Z,18.60
2022-11-16T23:59:27.887Z,18.48
